sensor_id;sensor_type;location;lat;lon;timestamp;P1;durP1;ratioP1;P2;durP2;ratioP2
9186;SDS011;7273;48.902;9.410;2023-01-30T00:00:29;166.25;;;72.45;;
9186;SDS011;7273;48.902;9.410;2023-01-30T00:02:55;164.02;;;69.57;;
9186;SDS011;7273;48.902;9.410;2023-01-30T00:05:20;166.97;;;72.73;;
9186;SDS011;7273;48.902;9.410;2023-01-30T00:07:46;166.30;;;72.80;;
9186;SDS011;7273;48.902;9.410;2023-01-30T00:10:12;164.50;;;72.03;;
9186;SDS011;7273;48.902;9.410;2023-01-30T00:12:37;165.70;;;70.70;;
9186;SDS011;7273;48.902;9.410;2023-01-30T00:15:03;162.55;;;70.85;;
9186;SDS011;7273;48.902;9.410;2023-01-30T00:17:29;165.98;;;74.45;;
9186;SDS011;7273;48.902;9.410;2023-01-30T00:19:54;163.30;;;71.78;;
9186;SDS011;7273;48.902;9.410;2023-01-30T00:22:20;164.82;;;72.15;;
9186;SDS011;7273;48.902;9.410;2023-01-30T00:24:45;164.05;;;71.57;;
9186;SDS011;7273;48.902;9.410;2023-01-30T00:27:11;166.43;;;70.97;;
9186;SDS011;7273;48.902;9.410;2023-01-30T00:29:36;165.30;;;71.63;;
9186;SDS011;7273;48.902;9.410;2023-01-30T00:32:02;166.77;;;72.45;;
9186;SDS011;7273;48.902;9.410;2023-01-30T00:34:27;164.38;;;70.20;;
9186;SDS011;7273;48.902;9.410;2023-01-30T00:36:52;164.73;;;72.10;;
9186;SDS011;7273;48.902;9.410;2023-01-30T00:39:18;165.30;;;71.90;;
9186;SDS011;7273;48.902;9.410;2023-01-30T00:41:43;167.40;;;70.90;;
9186;SDS011;7273;48.902;9.410;2023-01-30T00:44:27;164.77;;;71.85;;
9186;SDS011;7273;48.902;9.410;2023-01-30T00:47:11;165.27;;;70.45;;
9186;SDS011;7273;48.902;9.410;2023-01-30T00:49:37;163.45;;;69.95;;
9186;SDS011;7273;48.902;9.410;2023-01-30T00:52:03;161.35;;;68.93;;
9186;SDS011;7273;48.902;9.410;2023-01-30T00:54:29;160.88;;;68.68;;
9186;SDS011;7273;48.902;9.410;2023-01-30T00:56:55;162.00;;;71.03;;
9186;SDS011;7273;48.902;9.410;2023-01-30T00:59:20;161.13;;;70.28;;
9186;SDS011;7273;48.902;9.410;2023-01-30T01:01:46;162.55;;;69.05;;
9186;SDS011;7273;48.902;9.410;2023-01-30T01:04:11;160.95;;;68.63;;
9186;SDS011;7273;48.902;9.410;2023-01-30T01:06:37;159.95;;;68.63;;
9186;SDS011;7273;48.902;9.410;2023-01-30T01:09:03;161.52;;;70.50;;
9186;SDS011;7273;48.902;9.410;2023-01-30T01:11:29;161.05;;;69.18;;
9186;SDS011;7273;48.902;9.410;2023-01-30T01:13:55;157.30;;;68.60;;
9186;SDS011;7273;48.902;9.410;2023-01-30T01:16:22;158.27;;;67.72;;
9186;SDS011;7273;48.902;9.410;2023-01-30T01:18:48;158.20;;;67.57;;
9186;SDS011;7273;48.902;9.410;2023-01-30T01:21:14;158.93;;;69.97;;
9186;SDS011;7273;48.902;9.410;2023-01-30T01:23:39;158.23;;;67.75;;
9186;SDS011;7273;48.902;9.410;2023-01-30T01:26:05;159.07;;;70.07;;
9186;SDS011;7273;48.902;9.410;2023-01-30T01:28:30;165.15;;;70.43;;
9186;SDS011;7273;48.902;9.410;2023-01-30T01:30:56;160.48;;;68.22;;
9186;SDS011;7273;48.902;9.410;2023-01-30T01:33:25;161.38;;;68.43;;
9186;SDS011;7273;48.902;9.410;2023-01-30T01:35:54;163.32;;;69.05;;
9186;SDS011;7273;48.902;9.410;2023-01-30T01:38:20;160.82;;;68.55;;
9186;SDS011;7273;48.902;9.410;2023-01-30T01:40:46;159.15;;;68.07;;
9186;SDS011;7273;48.902;9.410;2023-01-30T01:43:27;157.85;;;67.55;;
9186;SDS011;7273;48.902;9.410;2023-01-30T01:49:16;158.00;;;68.10;;
9186;SDS011;7273;48.902;9.410;2023-01-30T01:54:17;154.32;;;66.00;;
9186;SDS011;7273;48.902;9.410;2023-01-30T01:57:03;159.13;;;69.55;;
9186;SDS011;7273;48.902;9.410;2023-01-30T01:59:51;154.85;;;66.70;;
9186;SDS011;7273;48.902;9.410;2023-01-30T02:02:23;154.90;;;66.80;;
9186;SDS011;7273;48.902;9.410;2023-01-30T02:04:51;150.45;;;64.28;;
9186;SDS011;7273;48.902;9.410;2023-01-30T02:07:30;151.80;;;65.20;;
9186;SDS011;7273;48.902;9.410;2023-01-30T02:10:02;149.75;;;64.00;;
9186;SDS011;7273;48.902;9.410;2023-01-30T02:12:30;149.50;;;63.97;;
9186;SDS011;7273;48.902;9.410;2023-01-30T02:14:56;148.00;;;62.95;;
9186;SDS011;7273;48.902;9.410;2023-01-30T02:17:24;149.13;;;64.00;;
9186;SDS011;7273;48.902;9.410;2023-01-30T02:20:05;149.68;;;66.90;;
9186;SDS011;7273;48.902;9.410;2023-01-30T02:36:15;150.52;;;64.72;;
9186;SDS011;7273;48.902;9.410;2023-01-30T02:38:53;150.77;;;66.57;;
9186;SDS011;7273;48.902;9.410;2023-01-30T02:41:31;151.60;;;67.65;;
9186;SDS011;7273;48.902;9.410;2023-01-30T02:44:05;152.40;;;66.30;;
9186;SDS011;7273;48.902;9.410;2023-01-30T02:46:52;151.85;;;64.95;;
9186;SDS011;7273;48.902;9.410;2023-01-30T02:49:35;152.00;;;67.82;;
9186;SDS011;7273;48.902;9.410;2023-01-30T02:52:06;152.15;;;65.82;;
9186;SDS011;7273;48.902;9.410;2023-01-30T02:54:34;151.25;;;65.35;;
9186;SDS011;7273;48.902;9.410;2023-01-30T02:57:00;154.32;;;66.40;;
9186;SDS011;7273;48.902;9.410;2023-01-30T02:59:36;156.38;;;66.97;;
9186;SDS011;7273;48.902;9.410;2023-01-30T03:02:24;159.48;;;70.05;;
9186;SDS011;7273;48.902;9.410;2023-01-30T03:09:57;165.07;;;70.28;;
9186;SDS011;7273;48.902;9.410;2023-01-30T03:15:12;155.57;;;66.32;;
9186;SDS011;7273;48.902;9.410;2023-01-30T03:17:41;156.60;;;66.75;;
9186;SDS011;7273;48.902;9.410;2023-01-30T03:20:09;164.55;;;68.40;;
9186;SDS011;7273;48.902;9.410;2023-01-30T03:22:35;155.77;;;68.40;;
9186;SDS011;7273;48.902;9.410;2023-01-30T03:25:01;155.90;;;66.75;;
9186;SDS011;7273;48.902;9.410;2023-01-30T03:27:26;154.23;;;65.55;;
9186;SDS011;7273;48.902;9.410;2023-01-30T03:29:52;158.43;;;67.38;;
9186;SDS011;7273;48.902;9.410;2023-01-30T03:32:17;149.50;;;63.88;;
9186;SDS011;7273;48.902;9.410;2023-01-30T03:34:42;158.05;;;67.20;;
9186;SDS011;7273;48.902;9.410;2023-01-30T03:37:08;151.63;;;67.13;;
9186;SDS011;7273;48.902;9.410;2023-01-30T03:39:33;151.80;;;65.45;;
9186;SDS011;7273;48.902;9.410;2023-01-30T03:41:59;152.20;;;67.72;;
9186;SDS011;7273;48.902;9.410;2023-01-30T03:44:24;152.50;;;65.45;;
9186;SDS011;7273;48.902;9.410;2023-01-30T03:46:50;154.05;;;65.18;;
9186;SDS011;7273;48.902;9.410;2023-01-30T03:49:15;150.57;;;64.47;;
9186;SDS011;7273;48.902;9.410;2023-01-30T03:51:40;150.48;;;64.13;;
9186;SDS011;7273;48.902;9.410;2023-01-30T03:54:06;149.35;;;63.55;;
9186;SDS011;7273;48.902;9.410;2023-01-30T03:56:31;150.63;;;64.53;;
9186;SDS011;7273;48.902;9.410;2023-01-30T03:58:57;152.43;;;65.10;;
9186;SDS011;7273;48.902;9.410;2023-01-30T04:01:22;149.00;;;64.05;;
9186;SDS011;7273;48.902;9.410;2023-01-30T04:03:47;150.48;;;64.85;;
9186;SDS011;7273;48.902;9.410;2023-01-30T04:06:13;151.60;;;65.47;;
9186;SDS011;7273;48.902;9.410;2023-01-30T04:08:39;152.02;;;64.35;;
9186;SDS011;7273;48.902;9.410;2023-01-30T04:11:04;150.52;;;64.13;;
9186;SDS011;7273;48.902;9.410;2023-01-30T04:13:29;151.15;;;64.18;;
9186;SDS011;7273;48.902;9.410;2023-01-30T04:18:53;154.90;;;65.63;;
9186;SDS011;7273;48.902;9.410;2023-01-30T04:21:19;153.02;;;64.30;;
9186;SDS011;7273;48.902;9.410;2023-01-30T04:23:44;151.25;;;64.57;;
9186;SDS011;7273;48.902;9.410;2023-01-30T04:26:10;151.10;;;64.25;;
9186;SDS011;7273;48.902;9.410;2023-01-30T04:28:36;151.90;;;64.32;;
9186;SDS011;7273;48.902;9.410;2023-01-30T04:31:02;151.57;;;64.43;;
9186;SDS011;7273;48.902;9.410;2023-01-30T04:33:27;152.40;;;65.07;;
9186;SDS011;7273;48.902;9.410;2023-01-30T04:35:54;151.35;;;64.07;;
9186;SDS011;7273;48.902;9.410;2023-01-30T04:38:20;151.55;;;64.05;;
9186;SDS011;7273;48.902;9.410;2023-01-30T04:40:47;152.40;;;64.72;;
9186;SDS011;7273;48.902;9.410;2023-01-30T04:43:16;151.05;;;63.97;;
9186;SDS011;7273;48.902;9.410;2023-01-30T04:45:42;152.65;;;64.68;;
9186;SDS011;7273;48.902;9.410;2023-01-30T04:48:09;152.05;;;64.13;;
9186;SDS011;7273;48.902;9.410;2023-01-30T04:50:34;155.32;;;65.38;;
9186;SDS011;7273;48.902;9.410;2023-01-30T04:53:00;157.38;;;65.07;;
9186;SDS011;7273;48.902;9.410;2023-01-30T04:55:25;154.13;;;64.65;;
9186;SDS011;7273;48.902;9.410;2023-01-30T04:57:51;154.35;;;65.75;;
9186;SDS011;7273;48.902;9.410;2023-01-30T05:00:16;152.90;;;63.85;;
9186;SDS011;7273;48.902;9.410;2023-01-30T05:02:42;154.50;;;64.93;;
9186;SDS011;7273;48.902;9.410;2023-01-30T05:05:07;152.95;;;64.15;;
9186;SDS011;7273;48.902;9.410;2023-01-30T05:07:33;153.63;;;64.50;;
9186;SDS011;7273;48.902;9.410;2023-01-30T05:09:59;152.55;;;65.18;;
9186;SDS011;7273;48.902;9.410;2023-01-30T05:12:24;153.13;;;64.22;;
9186;SDS011;7273;48.902;9.410;2023-01-30T05:14:49;158.75;;;65.45;;
9186;SDS011;7273;48.902;9.410;2023-01-30T05:17:15;155.25;;;65.82;;
9186;SDS011;7273;48.902;9.410;2023-01-30T05:19:40;155.50;;;64.83;;
9186;SDS011;7273;48.902;9.410;2023-01-30T05:22:06;155.45;;;65.53;;
9186;SDS011;7273;48.902;9.410;2023-01-30T05:24:31;153.60;;;64.63;;
9186;SDS011;7273;48.902;9.410;2023-01-30T05:26:56;156.00;;;65.32;;
9186;SDS011;7273;48.902;9.410;2023-01-30T05:29:22;155.68;;;65.28;;
9186;SDS011;7273;48.902;9.410;2023-01-30T05:31:47;158.10;;;66.13;;
9186;SDS011;7273;48.902;9.410;2023-01-30T05:34:13;157.52;;;65.60;;
9186;SDS011;7273;48.902;9.410;2023-01-30T05:36:38;147.82;;;62.35;;
9186;SDS011;7273;48.902;9.410;2023-01-30T05:39:03;150.27;;;63.63;;
9186;SDS011;7273;48.902;9.410;2023-01-30T05:41:29;149.98;;;63.45;;
9186;SDS011;7273;48.902;9.410;2023-01-30T05:43:54;151.90;;;63.88;;
9186;SDS011;7273;48.902;9.410;2023-01-30T05:46:19;155.48;;;65.13;;
9186;SDS011;7273;48.902;9.410;2023-01-30T05:48:45;157.77;;;65.88;;
9186;SDS011;7273;48.902;9.410;2023-01-30T05:51:28;158.27;;;65.78;;
9186;SDS011;7273;48.902;9.410;2023-01-30T05:53:54;156.73;;;65.68;;
9186;SDS011;7273;48.902;9.410;2023-01-30T05:56:20;161.90;;;66.10;;
9186;SDS011;7273;48.902;9.410;2023-01-30T05:58:52;160.50;;;66.88;;
9186;SDS011;7273;48.902;9.410;2023-01-30T06:01:20;161.45;;;66.80;;
9186;SDS011;7273;48.902;9.410;2023-01-30T06:03:46;161.10;;;67.00;;
9186;SDS011;7273;48.902;9.410;2023-01-30T06:06:12;162.43;;;67.95;;
9186;SDS011;7273;48.902;9.410;2023-01-30T06:08:38;163.35;;;67.95;;
9186;SDS011;7273;48.902;9.410;2023-01-30T06:11:05;168.02;;;68.55;;
9186;SDS011;7273;48.902;9.410;2023-01-30T06:13:33;170.15;;;69.53;;
9186;SDS011;7273;48.902;9.410;2023-01-30T06:15:59;173.73;;;70.55;;
9186;SDS011;7273;48.902;9.410;2023-01-30T06:18:24;177.90;;;72.38;;
9186;SDS011;7273;48.902;9.410;2023-01-30T06:20:51;189.20;;;75.53;;
9186;SDS011;7273;48.902;9.410;2023-01-30T06:23:17;201.70;;;79.05;;
9186;SDS011;7273;48.902;9.410;2023-01-30T06:25:44;235.73;;;88.80;;
9186;SDS011;7273;48.902;9.410;2023-01-30T06:28:10;204.10;;;80.88;;
9186;SDS011;7273;48.902;9.410;2023-01-30T06:30:36;177.88;;;71.90;;
9186;SDS011;7273;48.902;9.410;2023-01-30T06:33:01;180.35;;;72.47;;
9186;SDS011;7273;48.902;9.410;2023-01-30T06:35:26;187.27;;;75.13;;
9186;SDS011;7273;48.902;9.410;2023-01-30T06:37:52;201.45;;;78.47;;
9186;SDS011;7273;48.902;9.410;2023-01-30T06:40:17;201.15;;;79.15;;
9186;SDS011;7273;48.902;9.410;2023-01-30T06:42:46;228.27;;;86.82;;
9186;SDS011;7273;48.902;9.410;2023-01-30T06:45:13;236.77;;;89.57;;
9186;SDS011;7273;48.902;9.410;2023-01-30T06:47:47;224.55;;;86.05;;
9186;SDS011;7273;48.902;9.410;2023-01-30T06:50:14;194.38;;;77.20;;
9186;SDS011;7273;48.902;9.410;2023-01-30T06:52:42;193.88;;;76.85;;
9186;SDS011;7273;48.902;9.410;2023-01-30T06:55:09;197.43;;;77.80;;
9186;SDS011;7273;48.902;9.410;2023-01-30T06:57:36;214.02;;;82.95;;
9186;SDS011;7273;48.902;9.410;2023-01-30T07:00:04;244.50;;;91.53;;
9186;SDS011;7273;48.902;9.410;2023-01-30T07:02:32;255.52;;;95.00;;
9186;SDS011;7273;48.902;9.410;2023-01-30T07:05:02;271.52;;;98.70;;
9186;SDS011;7273;48.902;9.410;2023-01-30T07:07:29;171.15;;;69.43;;
9186;SDS011;7273;48.902;9.410;2023-01-30T07:09:55;159.50;;;66.47;;
9186;SDS011;7273;48.902;9.410;2023-01-30T07:12:22;160.45;;;67.18;;
9186;SDS011;7273;48.902;9.410;2023-01-30T07:14:48;161.23;;;66.88;;
9186;SDS011;7273;48.902;9.410;2023-01-30T07:17:14;169.45;;;69.43;;
9186;SDS011;7273;48.902;9.410;2023-01-30T07:19:40;176.18;;;71.18;;
9186;SDS011;7273;48.902;9.410;2023-01-30T07:22:06;179.20;;;72.55;;
9186;SDS011;7273;48.902;9.410;2023-01-30T07:24:31;181.80;;;72.82;;
9186;SDS011;7273;48.902;9.410;2023-01-30T07:26:57;183.23;;;73.30;;
9186;SDS011;7273;48.902;9.410;2023-01-30T07:29:22;188.13;;;75.00;;
9186;SDS011;7273;48.902;9.410;2023-01-30T07:31:47;189.77;;;75.05;;
9186;SDS011;7273;48.902;9.410;2023-01-30T07:34:13;192.83;;;75.90;;
9186;SDS011;7273;48.902;9.410;2023-01-30T07:36:38;198.32;;;77.72;;
9186;SDS011;7273;48.902;9.410;2023-01-30T07:39:04;202.00;;;78.97;;
9186;SDS011;7273;48.902;9.410;2023-01-30T07:41:29;208.85;;;80.75;;
9186;SDS011;7273;48.902;9.410;2023-01-30T07:43:55;234.88;;;89.38;;
9186;SDS011;7273;48.902;9.410;2023-01-30T07:46:20;208.73;;;81.03;;
9186;SDS011;7273;48.902;9.410;2023-01-30T07:48:46;239.85;;;89.18;;
9186;SDS011;7273;48.902;9.410;2023-01-30T07:51:11;236.25;;;88.53;;
9186;SDS011;7273;48.902;9.410;2023-01-30T07:53:37;246.88;;;90.63;;
9186;SDS011;7273;48.902;9.410;2023-01-30T07:56:08;152.48;;;65.35;;
9186;SDS011;7273;48.902;9.410;2023-01-30T07:58:38;151.05;;;63.35;;
9186;SDS011;7273;48.902;9.410;2023-01-30T08:01:03;150.52;;;62.28;;
9186;SDS011;7273;48.902;9.410;2023-01-30T08:03:29;149.57;;;62.35;;
9186;SDS011;7273;48.902;9.410;2023-01-30T08:05:55;151.52;;;64.07;;
9186;SDS011;7273;48.902;9.410;2023-01-30T08:08:20;147.32;;;62.35;;
9186;SDS011;7273;48.902;9.410;2023-01-30T08:10:48;150.17;;;63.07;;
9186;SDS011;7273;48.902;9.410;2023-01-30T08:13:14;141.70;;;59.85;;
9186;SDS011;7273;48.902;9.410;2023-01-30T08:15:39;141.70;;;60.42;;
9186;SDS011;7273;48.902;9.410;2023-01-30T08:18:05;141.95;;;60.55;;
9186;SDS011;7273;48.902;9.410;2023-01-30T08:20:34;142.35;;;60.38;;
9186;SDS011;7273;48.902;9.410;2023-01-30T08:23:00;142.05;;;59.97;;
9186;SDS011;7273;48.902;9.410;2023-01-30T08:25:26;141.40;;;60.10;;
9186;SDS011;7273;48.902;9.410;2023-01-30T08:27:52;142.68;;;60.53;;
9186;SDS011;7273;48.902;9.410;2023-01-30T08:30:18;143.00;;;60.50;;
9186;SDS011;7273;48.902;9.410;2023-01-30T08:32:45;147.48;;;61.83;;
9186;SDS011;7273;48.902;9.410;2023-01-30T08:35:11;145.07;;;61.05;;
9186;SDS011;7273;48.902;9.410;2023-01-30T08:37:40;147.70;;;61.88;;
9186;SDS011;7273;48.902;9.410;2023-01-30T08:40:06;148.07;;;62.22;;
9186;SDS011;7273;48.902;9.410;2023-01-30T08:42:32;146.93;;;61.42;;
9186;SDS011;7273;48.902;9.410;2023-01-30T08:44:57;152.20;;;63.50;;
9186;SDS011;7273;48.902;9.410;2023-01-30T08:47:23;150.20;;;62.75;;
9186;SDS011;7273;48.902;9.410;2023-01-30T08:49:48;151.88;;;63.38;;
9186;SDS011;7273;48.902;9.410;2023-01-30T08:52:15;151.77;;;62.90;;
9186;SDS011;7273;48.902;9.410;2023-01-30T08:54:41;151.75;;;63.40;;
9186;SDS011;7273;48.902;9.410;2023-01-30T08:57:07;151.27;;;63.25;;
9186;SDS011;7273;48.902;9.410;2023-01-30T08:59:33;149.18;;;62.72;;
9186;SDS011;7273;48.902;9.410;2023-01-30T09:01:58;152.75;;;63.75;;
9186;SDS011;7273;48.902;9.410;2023-01-30T09:04:23;152.60;;;63.53;;
9186;SDS011;7273;48.902;9.410;2023-01-30T09:06:50;155.52;;;64.53;;
9186;SDS011;7273;48.902;9.410;2023-01-30T09:09:16;153.18;;;63.88;;
9186;SDS011;7273;48.902;9.410;2023-01-30T09:11:41;156.75;;;65.18;;
9186;SDS011;7273;48.902;9.410;2023-01-30T09:14:07;156.55;;;64.32;;
9186;SDS011;7273;48.902;9.410;2023-01-30T09:16:32;158.77;;;65.28;;
9186;SDS011;7273;48.902;9.410;2023-01-30T09:18:57;158.02;;;65.53;;
9186;SDS011;7273;48.902;9.410;2023-01-30T09:21:23;157.65;;;64.72;;
9186;SDS011;7273;48.902;9.410;2023-01-30T09:23:49;157.65;;;65.63;;
9186;SDS011;7273;48.902;9.410;2023-01-30T09:26:14;156.40;;;64.72;;
9186;SDS011;7273;48.902;9.410;2023-01-30T09:28:39;158.52;;;65.13;;
9186;SDS011;7273;48.902;9.410;2023-01-30T09:31:05;158.50;;;65.55;;
9186;SDS011;7273;48.902;9.410;2023-01-30T09:33:30;159.63;;;65.90;;
9186;SDS011;7273;48.902;9.410;2023-01-30T09:35:56;162.32;;;67.55;;
9186;SDS011;7273;48.902;9.410;2023-01-30T09:38:21;160.55;;;66.93;;
9186;SDS011;7273;48.902;9.410;2023-01-30T09:40:51;166.57;;;67.97;;
9186;SDS011;7273;48.902;9.410;2023-01-30T09:48:47;165.55;;;68.05;;
9186;SDS011;7273;48.902;9.410;2023-01-30T09:54:19;175.55;;;70.55;;
9186;SDS011;7273;48.902;9.410;2023-01-30T10:02:30;174.05;;;70.40;;
9186;SDS011;7273;48.902;9.410;2023-01-30T10:05:16;179.40;;;71.88;;
9186;SDS011;7273;48.902;9.410;2023-01-30T10:07:48;163.52;;;66.72;;
9186;SDS011;7273;48.902;9.410;2023-01-30T10:10:40;164.80;;;67.25;;
9186;SDS011;7273;48.902;9.410;2023-01-30T10:13:13;161.85;;;66.32;;
9186;SDS011;7273;48.902;9.410;2023-01-30T10:18:48;165.27;;;66.53;;
9186;SDS011;7273;48.902;9.410;2023-01-30T10:24:37;166.23;;;67.63;;
9186;SDS011;7273;48.902;9.410;2023-01-30T10:26:43;166.10;;;67.35;;
9186;SDS011;7273;48.902;9.410;2023-01-30T10:31:48;160.48;;;65.82;;
9186;SDS011;7273;48.902;9.410;2023-01-30T10:34:28;160.20;;;65.97;;
9186;SDS011;7273;48.902;9.410;2023-01-30T10:37:12;161.85;;;66.15;;
9186;SDS011;7273;48.902;9.410;2023-01-30T10:39:49;168.55;;;68.45;;
9186;SDS011;7273;48.902;9.410;2023-01-30T10:45:10;167.20;;;68.35;;
9186;SDS011;7273;48.902;9.410;2023-01-30T10:50:20;158.95;;;65.60;;
9186;SDS011;7273;48.902;9.410;2023-01-30T10:53:05;152.63;;;63.40;;
9186;SDS011;7273;48.902;9.410;2023-01-30T10:55:43;150.85;;;62.97;;
9186;SDS011;7273;48.902;9.410;2023-01-30T10:58:27;149.00;;;61.95;;
9186;SDS011;7273;48.902;9.410;2023-01-30T11:03:43;143.35;;;60.25;;
9186;SDS011;7273;48.902;9.410;2023-01-30T11:06:21;142.27;;;60.33;;
9186;SDS011;7273;48.902;9.410;2023-01-30T11:08:48;140.65;;;59.42;;
9186;SDS011;7273;48.902;9.410;2023-01-30T11:11:28;138.48;;;59.05;;
9186;SDS011;7273;48.902;9.410;2023-01-30T11:16:27;137.90;;;58.83;;
9186;SDS011;7273;48.902;9.410;2023-01-30T11:18:53;137.15;;;58.90;;
9186;SDS011;7273;48.902;9.410;2023-01-30T11:21:27;137.43;;;58.65;;
9186;SDS011;7273;48.902;9.410;2023-01-30T11:23:54;137.18;;;58.78;;
9186;SDS011;7273;48.902;9.410;2023-01-30T11:26:21;136.25;;;58.28;;
9186;SDS011;7273;48.902;9.410;2023-01-30T11:28:49;136.20;;;58.33;;
9186;SDS011;7273;48.902;9.410;2023-01-30T11:31:15;136.70;;;58.80;;
9186;SDS011;7273;48.902;9.410;2023-01-30T11:33:45;135.52;;;58.40;;
9186;SDS011;7273;48.902;9.410;2023-01-30T11:36:25;135.35;;;58.08;;
9186;SDS011;7273;48.902;9.410;2023-01-30T11:39:18;133.00;;;57.33;;
9186;SDS011;7273;48.902;9.410;2023-01-30T11:44:22;134.10;;;57.83;;
9186;SDS011;7273;48.902;9.410;2023-01-30T11:46:51;134.82;;;58.20;;
9186;SDS011;7273;48.902;9.410;2023-01-30T11:49:17;134.63;;;57.53;;
9186;SDS011;7273;48.902;9.410;2023-01-30T11:51:46;132.48;;;57.92;;
9186;SDS011;7273;48.902;9.410;2023-01-30T11:54:20;130.05;;;56.83;;
9186;SDS011;7273;48.902;9.410;2023-01-30T11:56:55;131.52;;;56.83;;
9186;SDS011;7273;48.902;9.410;2023-01-30T11:59:37;136.77;;;59.80;;
9186;SDS011;7273;48.902;9.410;2023-01-30T12:05:04;129.57;;;56.35;;
9186;SDS011;7273;48.902;9.410;2023-01-30T12:07:51;130.00;;;56.63;;
9186;SDS011;7273;48.902;9.410;2023-01-30T12:12:49;127.70;;;55.67;;
9186;SDS011;7273;48.902;9.410;2023-01-30T12:15:33;124.75;;;55.13;;
9186;SDS011;7273;48.902;9.410;2023-01-30T12:21:12;130.27;;;57.03;;
9186;SDS011;7273;48.902;9.410;2023-01-30T12:26:39;127.68;;;55.80;;
9186;SDS011;7273;48.902;9.410;2023-01-30T12:32:16;139.52;;;59.25;;
9186;SDS011;7273;48.902;9.410;2023-01-30T12:34:46;134.13;;;57.75;;
9186;SDS011;7273;48.902;9.410;2023-01-30T12:42:48;130.02;;;56.78;;
9186;SDS011;7273;48.902;9.410;2023-01-30T12:46:17;132.43;;;57.40;;
9186;SDS011;7273;48.902;9.410;2023-01-30T12:57:06;132.35;;;56.97;;
9186;SDS011;7273;48.902;9.410;2023-01-30T13:00:01;131.68;;;57.38;;
9186;SDS011;7273;48.902;9.410;2023-01-30T13:05:10;131.23;;;57.25;;
9186;SDS011;7273;48.902;9.410;2023-01-30T13:13:23;131.60;;;56.88;;
9186;SDS011;7273;48.902;9.410;2023-01-30T13:16:09;132.57;;;57.97;;
9186;SDS011;7273;48.902;9.410;2023-01-30T13:18:41;130.13;;;56.55;;
9186;SDS011;7273;48.902;9.410;2023-01-30T13:21:52;130.95;;;56.85;;
9186;SDS011;7273;48.902;9.410;2023-01-30T13:24:39;133.50;;;57.70;;
9186;SDS011;7273;48.902;9.410;2023-01-30T13:27:14;134.82;;;58.67;;
9186;SDS011;7273;48.902;9.410;2023-01-30T13:29:43;132.38;;;56.83;;
9186;SDS011;7273;48.902;9.410;2023-01-30T13:32:13;130.68;;;56.80;;
9186;SDS011;7273;48.902;9.410;2023-01-30T13:34:49;132.23;;;57.42;;
9186;SDS011;7273;48.902;9.410;2023-01-30T13:37:18;130.52;;;56.50;;
9186;SDS011;7273;48.902;9.410;2023-01-30T13:39:54;130.35;;;57.20;;
9186;SDS011;7273;48.902;9.410;2023-01-30T13:42:32;131.68;;;58.90;;
9186;SDS011;7273;48.902;9.410;2023-01-30T13:45:03;131.38;;;58.60;;
9186;SDS011;7273;48.902;9.410;2023-01-30T13:53:00;128.40;;;56.08;;
9186;SDS011;7273;48.902;9.410;2023-01-30T13:56:14;130.18;;;57.33;;
9186;SDS011;7273;48.902;9.410;2023-01-30T13:58:48;128.43;;;56.30;;
9186;SDS011;7273;48.902;9.410;2023-01-30T14:09:39;123.38;;;54.92;;
9186;SDS011;7273;48.902;9.410;2023-01-30T14:12:20;123.18;;;54.75;;
9186;SDS011;7273;48.902;9.410;2023-01-30T14:15:09;122.00;;;54.60;;
9186;SDS011;7273;48.902;9.410;2023-01-30T14:20:23;122.88;;;54.88;;
9186;SDS011;7273;48.902;9.410;2023-01-30T14:22:58;120.57;;;53.88;;
9186;SDS011;7273;48.902;9.410;2023-01-30T14:38:27;120.40;;;54.35;;
9186;SDS011;7273;48.902;9.410;2023-01-30T14:45:50;117.37;;;53.50;;
9186;SDS011;7273;48.902;9.410;2023-01-30T14:48:27;118.25;;;53.72;;
9186;SDS011;7273;48.902;9.410;2023-01-30T14:56:13;123.75;;;54.90;;
9186;SDS011;7273;48.902;9.410;2023-01-30T14:58:38;122.63;;;55.05;;
9186;SDS011;7273;48.902;9.410;2023-01-30T15:01:04;120.28;;;54.05;;
9186;SDS011;7273;48.902;9.410;2023-01-30T15:03:29;119.53;;;53.58;;
9186;SDS011;7273;48.902;9.410;2023-01-30T15:06:01;118.90;;;53.47;;
9186;SDS011;7273;48.902;9.410;2023-01-30T15:08:27;117.43;;;53.42;;
9186;SDS011;7273;48.902;9.410;2023-01-30T15:24:20;119.82;;;53.97;;
9186;SDS011;7273;48.902;9.410;2023-01-30T15:30:12;123.10;;;54.67;;
9186;SDS011;7273;48.902;9.410;2023-01-30T15:32:43;121.53;;;54.08;;
9186;SDS011;7273;48.902;9.410;2023-01-30T15:37:38;119.35;;;53.85;;
9186;SDS011;7273;48.902;9.410;2023-01-30T15:50:49;121.20;;;54.37;;
9186;SDS011;7273;48.902;9.410;2023-01-30T15:53:23;122.68;;;54.85;;
9186;SDS011;7273;48.902;9.410;2023-01-30T15:55:55;122.25;;;54.63;;
9186;SDS011;7273;48.902;9.410;2023-01-30T15:58:21;119.70;;;53.50;;
9186;SDS011;7273;48.902;9.410;2023-01-30T16:00:49;121.55;;;54.85;;
9186;SDS011;7273;48.902;9.410;2023-01-30T16:03:19;123.50;;;55.28;;
9186;SDS011;7273;48.902;9.410;2023-01-30T16:05:50;119.82;;;53.63;;
9186;SDS011;7273;48.902;9.410;2023-01-30T16:08:32;121.13;;;54.78;;
9186;SDS011;7273;48.902;9.410;2023-01-30T16:10:59;120.57;;;53.92;;
9186;SDS011;7273;48.902;9.410;2023-01-30T16:13:25;121.00;;;54.22;;
9186;SDS011;7273;48.902;9.410;2023-01-30T16:18:50;123.45;;;56.63;;
9186;SDS011;7273;48.902;9.410;2023-01-30T16:21:21;121.40;;;54.15;;
9186;SDS011;7273;48.902;9.410;2023-01-30T16:26:20;122.50;;;54.65;;
9186;SDS011;7273;48.902;9.410;2023-01-30T16:28:47;122.10;;;54.75;;
9186;SDS011;7273;48.902;9.410;2023-01-30T16:31:14;123.25;;;55.03;;
9186;SDS011;7273;48.902;9.410;2023-01-30T16:33:48;119.40;;;53.72;;
9186;SDS011;7273;48.902;9.410;2023-01-30T16:38:44;120.40;;;53.72;;
9186;SDS011;7273;48.902;9.410;2023-01-30T16:41:30;119.78;;;54.03;;
9186;SDS011;7273;48.902;9.410;2023-01-30T16:46:55;122.60;;;55.03;;
9186;SDS011;7273;48.902;9.410;2023-01-30T16:55:19;125.57;;;55.78;;
9186;SDS011;7273;48.902;9.410;2023-01-30T16:57:53;122.70;;;54.50;;
9186;SDS011;7273;48.902;9.410;2023-01-30T17:00:23;121.43;;;54.47;;
9186;SDS011;7273;48.902;9.410;2023-01-30T17:03:01;121.05;;;54.30;;
9186;SDS011;7273;48.902;9.410;2023-01-30T17:05:42;122.88;;;54.72;;
9186;SDS011;7273;48.902;9.410;2023-01-30T17:11:08;124.55;;;55.25;;
9186;SDS011;7273;48.902;9.410;2023-01-30T17:13:39;122.57;;;54.42;;
9186;SDS011;7273;48.902;9.410;2023-01-30T17:16:25;126.07;;;55.97;;
9186;SDS011;7273;48.902;9.410;2023-01-30T17:18:56;123.90;;;55.25;;
9186;SDS011;7273;48.902;9.410;2023-01-30T17:21:23;120.13;;;53.95;;
9186;SDS011;7273;48.902;9.410;2023-01-30T17:23:55;122.22;;;54.55;;
9186;SDS011;7273;48.902;9.410;2023-01-30T17:26:24;122.30;;;55.22;;
9186;SDS011;7273;48.902;9.410;2023-01-30T17:28:49;122.65;;;56.35;;
9186;SDS011;7273;48.902;9.410;2023-01-30T17:31:15;119.60;;;54.20;;
9186;SDS011;7273;48.902;9.410;2023-01-30T17:33:41;121.47;;;54.50;;
9186;SDS011;7273;48.902;9.410;2023-01-30T17:38:43;120.97;;;54.80;;
9186;SDS011;7273;48.902;9.410;2023-01-30T17:41:22;121.57;;;54.25;;
9186;SDS011;7273;48.902;9.410;2023-01-30T17:43:54;120.53;;;53.65;;
9186;SDS011;7273;48.902;9.410;2023-01-30T17:46:21;120.93;;;54.53;;
9186;SDS011;7273;48.902;9.410;2023-01-30T17:48:51;122.10;;;54.70;;
9186;SDS011;7273;48.902;9.410;2023-01-30T17:51:16;120.80;;;54.42;;
9186;SDS011;7273;48.902;9.410;2023-01-30T17:53:41;121.97;;;54.50;;
9186;SDS011;7273;48.902;9.410;2023-01-30T17:56:30;120.35;;;54.25;;
9186;SDS011;7273;48.902;9.410;2023-01-30T17:58:57;123.60;;;55.05;;
9186;SDS011;7273;48.902;9.410;2023-01-30T18:01:23;121.13;;;53.97;;